Time;durP1;ratioP1;P1;durP2;ratioP2;P2;SDS_P1;SDS_P2;PMS_P1;PMS_P2;Temp;Humidity;BMP_temperature;BMP_pressure;BME280_temperature;BME280_humidity;BME280_pressure;Samples;Min_cycle;Max_cycle;Signal;HPM_P1;HPM_P2
2022/08/23 00:01:31;;;;;;;5.70;3.78;;;;;;;17.37;54.57;92749.22;2015445;71;20150;-76
2022/08/23 00:04:00;;;;;;;6.47;4.25;;;;;;;17.29;55.53;92754.63;2015172;71;20162;-76
2022/08/23 00:06:27;;;;;;;6.40;3.95;;;;;;;17.27;55.34;92755.28;2011678;71;20578;-75
2022/08/23 00:08:54;;;;;;;9.13;4.28;;;;;;;17.18;56.32;92759.22;2014941;71;20166;-76
2022/08/23 00:11:48;;;;;;;6.78;4.20;;;;;;;17.00;57.01;92764.22;2015110;71;20539;-76
2022/08/23 00:14:21;;;;;;;7.13;4.35;;;;;;;17.13;55.50;92762.53;2014440;71;20577;-76
2022/08/23 00:16:47;;;;;;;5.85;4.18;;;;;;;17.01;56.97;92762.81;2011415;71;20233;-75
2022/08/23 00:19:15;;;;;;;6.55;4.10;;;;;;;17.05;56.34;92760.13;2008873;71;20604;-76
2022/08/23 00:21:42;;;;;;;9.52;4.80;;;;;;;17.05;55.35;92762.25;2015068;71;20231;-76
2022/08/23 00:24:10;;;;;;;9.45;4.40;;;;;;;17.05;55.84;92765.09;2015052;71;20192;-75
2022/08/23 00:27:04;;;;;;;6.13;4.00;;;;;;;16.95;56.68;92759.72;2014741;71;20177;-76
2022/08/23 00:29:40;;;;;;;7.97;4.75;;;;;;;16.94;56.34;92750.47;2011260;71;20245;-75
2022/08/23 00:32:08;;;;;;;8.50;4.30;;;;;;;16.80;57.39;92752.78;2014044;71;20162;-75
2022/08/23 00:34:35;;;;;;;10.68;4.47;;;;;;;16.99;55.48;92754.19;2014873;71;20224;-76
2022/08/23 00:37:02;;;;;;;8.93;4.32;;;;;;;16.85;56.43;92750.81;2014927;71;20228;-76
2022/08/23 00:39:28;;;;;;;6.28;4.40;;;;;;;16.70;57.07;92749.50;2014783;71;20169;-76
2022/08/23 00:47:38;;;;;;;6.43;4.05;;;;;;;16.45;58.63;92747.84;2014900;71;20150;-76
2022/08/23 00:47:40;;;;;;;7.15;4.80;;;;;;;16.26;58.46;92752.03;2011195;71;20146;-76
2022/08/23 00:50:22;;;;;;;6.25;4.93;;;;;;;16.53;56.19;92748.88;2011661;71;20212;-76
2022/08/23 00:53:16;;;;;;;7.40;4.22;;;;;;;16.45;57.86;92747.84;2015079;71;20150;-76
2022/08/23 00:55:46;;;;;;;6.72;4.03;;;;;;;16.56;57.45;92749.69;2010107;71;20601;-76
2022/08/23 00:58:17;;;;;;;8.77;4.50;;;;;;;16.43;57.52;92751.31;2011507;71;20148;-77
2022/08/23 01:00:43;;;;;;;7.40;4.25;;;;;;;16.50;57.67;92753.03;2015120;71;20520;-76
2022/08/23 01:03:10;;;;;;;6.75;4.70;;;;;;;16.45;56.63;92754.25;2014999;71;20146;-76
2022/08/23 01:05:51;;;;;;;9.05;6.10;;;;;;;16.72;55.73;92753.22;2015101;71;20160;-77
2022/08/23 01:08:18;;;;;;;8.13;5.93;;;;;;;16.75;55.49;92756.84;2015169;71;20162;-76
2022/08/23 01:10:55;;;;;;;10.57;5.88;;;;;;;16.46;57.21;92761.38;2011509;71;20181;-76
2022/08/23 01:14:10;;;;;;;7.15;4.82;;;;;;;16.39;56.79;92759.66;2015099;71;20161;-76
2022/08/23 01:16:40;;;;;;;8.35;4.40;;;;;;;16.48;56.74;92758.63;2001303;71;20280;-77
2022/08/23 01:19:14;;;;;;;5.97;4.30;;;;;;;16.41;56.07;92768.28;2004844;71;20131;-76
2022/08/23 01:21:50;;;;;;;6.22;4.20;;;;;;;16.58;55.21;92760.41;2004888;71;20624;-76
2022/08/23 01:24:17;;;;;;;6.65;4.10;;;;;;;16.46;56.46;92761.38;2004760;71;20150;-76
2022/08/23 01:26:43;;;;;;;5.70;4.07;;;;;;;16.45;56.38;92757.09;2004752;71;20253;-77
2022/08/23 01:29:09;;;;;;;7.28;4.25;;;;;;;16.42;56.79;92757.66;2004569;71;20243;-75
2022/08/23 01:31:35;;;;;;;6.50;4.18;;;;;;;16.37;57.75;92753.91;2004742;71;20624;-77
2022/08/23 01:34:05;;;;;;;6.53;3.90;;;;;;;16.32;57.61;92766.50;2004626;71;20288;-77
2022/08/23 01:36:32;;;;;;;6.22;4.63;;;;;;;16.41;57.10;92770.41;2004799;71;20207;-77
2022/08/23 01:38:59;;;;;;;6.93;4.32;;;;;;;16.27;57.55;92762.75;2004687;71;20147;-76
2022/08/23 01:41:25;;;;;;;4.78;3.70;;;;;;;16.23;57.14;92770.38;2002907;71;20205;-75
2022/08/23 01:44:23;;;;;;;6.78;4.32;;;;;;;16.24;57.91;92774.69;2001070;71;20251;-76
2022/08/23 01:46:53;;;;;;;7.22;4.00;;;;;;;16.28;57.24;92772.00;2001390;71;20187;-76
2022/08/23 01:49:19;;;;;;;7.35;4.00;;;;;;;16.32;56.18;92780.69;2002247;71;20190;-75
2022/08/23 01:51:48;;;;;;;8.07;4.72;;;;;;;16.10;57.67;92779.78;2011470;71;20150;-75
2022/08/23 01:54:14;;;;;;;5.30;4.28;;;;;;;16.20;57.36;92777.34;2011756;71;20169;-74
2022/08/23 01:56:41;;;;;;;8.63;4.03;;;;;;;16.18;56.01;92780.13;2011570;71;20247;-75
2022/08/23 01:59:10;;;;;;;6.18;4.40;;;;;;;16.26;56.87;92783.28;2011315;71;20134;-75
2022/08/23 02:01:46;;;;;;;8.93;4.18;;;;;;;16.20;57.25;92780.94;2011405;71;20177;-77
2022/08/23 02:04:12;;;;;;;4.70;3.70;;;;;;;16.27;56.52;92784.75;2011399;71;20321;-76
2022/08/23 02:06:37;;;;;;;6.18;4.07;;;;;;;16.24;56.91;92789.63;2011425;71;20134;-75
2022/08/23 02:09:05;;;;;;;5.63;3.83;;;;;;;16.24;55.72;92786.03;2011381;71;20181;-76
2022/08/23 02:11:38;;;;;;;6.25;4.40;;;;;;;15.98;57.07;92783.56;2011392;71;20146;-75
2022/08/23 02:14:07;;;;;;;8.32;5.28;;;;;;;16.19;56.47;92776.63;2011340;71;20615;-75
2022/08/23 02:16:50;;;;;;;6.13;4.40;;;;;;;16.23;56.58;92776.78;2011473;71;20219;-76
2022/08/23 02:19:17;;;;;;;5.82;4.38;;;;;;;16.08;57.36;92783.28;2014928;71;20492;-77
2022/08/23 02:21:44;;;;;;;4.97;4.18;;;;;;;16.10;56.63;92780.50;2014926;71;20178;-77
2022/08/23 02:24:21;;;;;;;6.10;4.40;;;;;;;16.09;55.78;92784.00;2011422;71;20162;-77
2022/08/23 02:26:55;;;;;;;4.38;3.97;;;;;;;16.10;57.36;92785.47;2011391;71;20135;-78
2022/08/23 02:29:23;;;;;;;6.40;4.22;;;;;;;15.66;59.14;92788.59;2011225;71;20364;-77
2022/08/23 02:31:50;;;;;;;6.85;4.47;;;;;;;15.58;59.38;92790.31;2011270;71;20612;-77
2022/08/23 02:34:17;;;;;;;6.65;4.57;;;;;;;15.81;57.91;92798.47;2011401;71;20236;-76
2022/08/23 02:36:44;;;;;;;7.47;4.07;;;;;;;16.13;55.34;92789.84;2014195;71;20202;-78
2022/08/23 02:39:12;;;;;;;7.35;4.18;;;;;;;16.02;56.65;92792.25;2015086;71;20154;-77
2022/08/23 02:41:38;;;;;;;5.30;4.30;;;;;;;15.83;56.79;92795.69;2011352;71;20228;-76
2022/08/23 02:44:09;;;;;;;7.13;4.25;;;;;;;15.85;57.61;92797.88;2014478;71;20142;-78
2022/08/23 02:46:35;;;;;;;4.82;4.00;;;;;;;15.95;57.46;92801.19;2011383;71;20627;-77
2022/08/23 02:49:03;;;;;;;7.13;4.07;;;;;;;16.03;55.98;92801.50;2011355;71;20150;-78
2022/08/23 02:51:29;;;;;;;8.70;4.40;;;;;;;15.92;57.31;92806.03;2014480;71;20150;-77
2022/08/23 02:53:54;;;;;;;7.90;4.50;;;;;;;16.01;55.07;92813.50;2014589;71;20458;-77
2022/08/23 02:56:22;;;;;;;6.07;4.57;;;;;;;15.77;57.90;92808.91;2011242;71;20655;-78
2022/08/23 02:58:50;;;;;;;6.32;4.10;;;;;;;16.10;54.84;92803.22;2011108;71;20142;-78
2022/08/23 03:01:20;;;;;;;5.90;4.25;;;;;;;15.87;56.23;92804.38;2011284;71;20143;-78
2022/08/23 03:03:48;;;;;;;6.85;4.90;;;;;;;15.44;58.93;92813.09;2011331;71;20638;-78
2022/08/23 03:06:15;;;;;;;6.60;4.80;;;;;;;15.59;57.39;92811.66;2011199;71;20202;-79
2022/08/23 03:08:42;;;;;;;5.78;4.47;;;;;;;15.63;57.62;92821.06;2011149;71;20180;-75
2022/08/23 03:11:19;;;;;;;7.85;4.50;;;;;;;15.67;57.08;92814.88;2011118;71;20664;-78
2022/08/23 03:13:46;;;;;;;5.85;4.30;;;;;;;15.61;58.10;92803.22;2011077;71;20158;-78
2022/08/23 03:16:13;;;;;;;6.68;4.20;;;;;;;15.64;57.26;92810.47;2011165;71;20161;-77
2022/08/23 03:18:44;;;;;;;8.70;4.30;;;;;;;15.67;57.72;92809.19;2011186;71;20166;-76
2022/08/23 03:21:10;;;;;;;5.88;4.18;;;;;;;15.40;59.33;92810.84;2011161;71;20177;-77
2022/08/23 03:23:37;;;;;;;9.13;4.95;;;;;;;15.11;59.70;92811.66;2011180;71;20245;-77
2022/08/23 03:26:05;;;;;;;10.55;4.93;;;;;;;15.31;59.35;92811.13;2011145;71;20218;-77
2022/08/23 03:28:34;;;;;;;5.30;4.80;;;;;;;15.35;59.52;92814.88;2011050;71;20227;-77
2022/08/23 03:31:00;;;;;;;9.05;4.63;;;;;;;15.49;58.47;92815.50;2008457;71;20568;-76
2022/08/23 03:33:26;;;;;;;6.47;4.22;;;;;;;15.51;57.47;92815.59;2014449;71;20162;-77
2022/08/23 03:35:58;;;;;;;7.80;4.90;;;;;;;15.59;57.16;92812.38;2013820;71;20192;-77
2022/08/23 03:38:24;;;;;;;5.65;4.50;;;;;;;15.60;57.29;92815.94;2011012;71;20189;-77
2022/08/23 03:40:51;;;;;;;8.25;4.55;;;;;;;15.89;56.67;92817.94;2014565;71;20477;-77
2022/08/23 03:43:18;;;;;;;5.78;4.18;;;;;;;15.66;55.83;92819.06;2011115;71;20528;-77
2022/08/23 03:45:43;;;;;;;6.68;4.50;;;;;;;15.64;55.39;92828.22;2011415;71;20259;-75
2022/08/23 03:48:09;;;;;;;5.63;4.20;;;;;;;15.47;58.04;92815.41;2011269;71;20648;-77
2022/08/23 03:50:36;;;;;;;7.70;4.10;;;;;;;15.18;58.92;92821.19;2011466;71;20640;-77
2022/08/23 03:53:01;;;;;;;9.07;4.80;;;;;;;15.24;58.63;92815.78;2011243;71;20293;-77
2022/08/23 03:55:27;;;;;;;6.10;4.03;;;;;;;15.51;57.22;92817.69;2011165;71;20667;-77
2022/08/23 03:57:54;;;;;;;7.55;4.32;;;;;;;15.53;57.17;92823.44;2013676;71;20596;-77
2022/08/23 04:00:20;;;;;;;7.85;4.90;;;;;;;15.34;57.87;92810.56;2011188;71;20273;-77
2022/08/23 04:02:49;;;;;;;5.65;4.22;;;;;;;15.50;56.66;92824.75;2011525;71;20181;-76
2022/08/23 04:05:16;;;;;;;6.88;4.15;;;;;;;15.46;57.03;92821.72;2011207;71;20170;-77
2022/08/23 04:08:08;;;;;;;7.63;4.70;;;;;;;15.49;57.61;92824.00;2013177;71;20160;-77
2022/08/23 04:10:33;;;;;;;5.88;4.53;;;;;;;15.48;56.85;92819.69;2011178;71;20288;-77
2022/08/23 04:12:59;;;;;;;6.63;5.05;;;;;;;15.38;57.45;92835.53;2014495;71;20546;-77
2022/08/23 04:15:25;;;;;;;7.45;4.70;;;;;;;15.31;57.78;92828.88;2011114;71;20599;-77
2022/08/23 04:17:51;;;;;;;7.45;4.80;;;;;;;14.98;59.08;92837.97;2011035;71;20162;-77
2022/08/23 04:20:17;;;;;;;8.18;5.00;;;;;;;15.18;58.05;92835.34;2011068;71;20252;-78
2022/08/23 04:22:53;;;;;;;6.47;4.20;;;;;;;15.11;58.99;92833.59;2011585;71;20154;-78
2022/08/23 04:25:21;;;;;;;7.90;4.50;;;;;;;15.28;57.55;92841.47;2011808;71;20145;-75
2022/08/23 04:27:48;;;;;;;7.20;4.70;;;;;;;15.45;57.61;92843.69;2015049;71;20630;-76
2022/08/23 04:30:15;;;;;;;6.95;4.40;;;;;;;15.31;57.92;92839.47;2014566;71;20153;-76
2022/08/23 04:32:41;;;;;;;8.10;4.68;;;;;;;15.17;58.65;92842.41;2011614;71;20233;-76
2022/08/23 04:35:07;;;;;;;6.20;4.25;;;;;;;15.40;56.90;92844.16;2011873;71;20253;-76
2022/08/23 04:37:34;;;;;;;8.30;4.38;;;;;;;15.35;56.93;92846.06;2009077;71;20161;-76
2022/08/23 04:42:47;;;;;;;8.02;5.05;;;;;;;15.06;59.46;92854.63;2011554;71;20198;-76
2022/08/23 04:45:13;;;;;;;7.30;5.00;;;;;;;15.05;59.00;92856.72;2014369;71;20519;-76
2022/08/23 04:47:43;;;;;;;9.90;5.20;;;;;;;15.15;58.27;92859.31;2011615;71;20150;-76
2022/08/23 04:50:10;;;;;;;7.97;4.75;;;;;;;15.11;59.28;92857.00;2015010;71;20151;-77
2022/08/23 04:52:50;;;;;;;5.72;4.28;;;;;;;15.12;58.85;92858.50;2014997;71;20150;-76
2022/08/23 04:55:15;;;;;;;7.28;4.45;;;;;;;15.18;58.86;92863.72;2011465;71;20241;-76
2022/08/23 04:57:45;;;;;;;6.50;4.60;;;;;;;15.15;58.36;92865.72;2011448;71;20331;-76
2022/08/23 05:00:15;;;;;;;6.47;4.20;;;;;;;15.35;57.08;92863.09;2011685;71;20584;-76
2022/08/23 05:02:48;;;;;;;8.48;4.78;;;;;;;15.40;56.75;92864.75;2014243;71;20168;-77
2022/08/23 05:05:14;;;;;;;7.00;4.82;;;;;;;15.50;55.58;92872.97;2014354;71;20166;-77
2022/08/23 05:07:43;;;;;;;10.13;5.10;;;;;;;15.21;58.64;92873.75;2011603;71;20164;-77
2022/08/23 05:10:11;;;;;;;7.65;4.95;;;;;;;15.13;59.00;92874.13;2015152;71;20168;-76
2022/08/23 05:12:39;;;;;;;6.20;4.70;;;;;;;15.09;58.39;92876.78;2011508;71;20237;-76
2022/08/23 05:15:06;;;;;;;5.72;4.45;;;;;;;15.20;57.66;92878.69;2011346;71;20535;-77
2022/08/23 05:17:31;;;;;;;7.90;4.75;;;;;;;15.21;58.54;92883.03;2011497;71;20619;-74
2022/08/23 05:19:57;;;;;;;7.22;4.35;;;;;;;15.19;58.58;92879.34;2011671;71;20583;-74
2022/08/23 05:22:24;;;;;;;5.18;4.22;;;;;;;15.34;56.99;92881.47;2011609;71;20162;-75
2022/08/23 05:25:10;;;;;;;7.05;4.40;;;;;;;15.43;56.25;92883.28;2015027;71;20578;-76
2022/08/23 05:27:37;;;;;;;8.50;4.47;;;;;;;15.34;56.12;92883.56;2014419;71;20157;-75
2022/08/23 05:30:05;;;;;;;7.43;4.70;;;;;;;15.26;58.09;92878.28;2011346;71;20154;-75
2022/08/23 05:32:31;;;;;;;7.60;4.47;;;;;;;15.28;58.60;92884.03;2011268;71;20162;-76
2022/08/23 05:34:56;;;;;;;5.13;4.50;;;;;;;15.31;58.14;92885.59;2014356;71;20154;-75
2022/08/23 05:37:22;;;;;;;5.35;4.43;;;;;;;15.21;59.04;92888.69;2011416;71;20493;-76
2022/08/23 05:39:48;;;;;;;7.43;4.30;;;;;;;15.27;57.14;92884.69;2011505;71;20153;-76
2022/08/23 05:42:15;;;;;;;6.35;4.18;;;;;;;15.26;58.13;92895.28;2011425;71;20182;-80
2022/08/23 05:44:43;;;;;;;6.88;4.88;;;;;;;15.26;57.77;92889.63;2011345;71;20197;-77
2022/08/23 05:47:13;;;;;;;6.53;4.60;;;;;;;15.13;58.47;92893.25;2011404;71;20219;-77
2022/08/23 05:49:49;;;;;;;9.52;5.13;;;;;;;15.24;58.24;92898.75;2009056;71;20154;-76
2022/08/23 05:52:15;;;;;;;8.98;4.97;;;;;;;15.31;56.74;92894.09;2015037;71;20161;-77
2022/08/23 05:54:42;;;;;;;10.15;5.93;;;;;;;15.14;58.16;92898.28;2015007;71;20146;-77
2022/08/23 05:57:33;;;;;;;7.45;4.88;;;;;;;15.08;59.30;92905.78;2014523;71;20169;-75
2022/08/23 05:59:59;;;;;;;9.10;4.60;;;;;;;15.17;58.33;92896.28;2011340;71;20447;-75
2022/08/23 06:02:25;;;;;;;6.60;4.60;;;;;;;15.08;60.08;92900.09;2011512;71;20666;-75
2022/08/23 06:04:50;;;;;;;7.32;4.47;;;;;;;15.20;58.54;92892.16;2008834;71;20162;-74
2022/08/23 06:07:16;;;;;;;6.90;4.68;;;;;;;15.11;60.44;92908.03;2011436;71;20153;-74
2022/08/23 06:09:42;;;;;;;6.60;4.10;;;;;;;15.21;59.52;92900.03;2011407;71;20611;-75
2022/08/23 06:12:10;;;;;;;7.47;4.30;;;;;;;15.19;58.34;92905.59;2014896;71;20527;-75
2022/08/23 06:14:37;;;;;;;7.50;4.82;;;;;;;15.12;58.18;92905.94;2011399;71;20150;-75
2022/08/23 06:17:04;;;;;;;8.25;4.85;;;;;;;15.46;56.69;92907.56;2011436;71;20147;-74
2022/08/23 06:19:30;;;;;;;7.90;4.93;;;;;;;15.21;57.11;92899.28;2011550;71;20249;-73
2022/08/23 06:22:18;;;;;;;11.57;4.57;;;;;;;15.21;57.17;92902.88;2014777;71;20303;-75
2022/08/23 06:24:45;;;;;;;8.85;4.82;;;;;;;15.05;59.03;92904.19;2013935;71;20177;-74
2022/08/23 06:27:14;;;;;;;6.40;4.55;;;;;;;15.19;57.83;92897.09;2011413;71;20207;-74
2022/08/23 06:29:41;;;;;;;7.32;4.63;;;;;;;15.24;57.59;92903.69;2011252;71;20256;-74
2022/08/23 06:32:25;;;;;;;8.20;4.50;;;;;;;15.44;57.99;92907.47;2014951;71;20164;-74
2022/08/23 06:35:11;;;;;;;6.57;4.75;;;;;;;15.35;59.51;92905.63;2014834;71;20603;-75
2022/08/23 06:37:50;;;;;;;5.43;4.38;;;;;;;15.46;59.42;92913.22;2014386;71;20161;-75
2022/08/23 06:40:41;;;;;;;7.43;4.53;;;;;;;15.65;58.95;92909.16;2014212;71;20255;-75
2022/08/23 06:43:26;;;;;;;5.85;4.60;;;;;;;15.81;58.60;92914.84;2014813;71;20173;-74
2022/08/23 06:46:21;;;;;;;7.22;4.53;;;;;;;16.08;59.55;92918.81;2014771;71;20146;-75
2022/08/23 06:48:47;;;;;;;5.80;4.20;;;;;;;16.41;58.23;92915.31;2014925;71;20284;-74
2022/08/23 06:51:25;;;;;;;7.55;4.60;;;;;;;15.83;58.81;92911.34;2011339;71;20262;-74
2022/08/23 06:54:26;;;;;;;8.35;4.95;;;;;;;16.30;57.86;92916.97;2009065;71;20162;-74
2022/08/23 06:57:19;;;;;;;6.18;4.60;;;;;;;16.86;55.17;92909.41;2011211;71;20153;-74
2022/08/23 07:00:10;;;;;;;7.43;4.40;;;;;;;16.65;56.55;92912.75;2014146;71;20203;-75
2022/08/23 07:02:56;;;;;;;8.70;4.18;;;;;;;17.26;56.34;92918.09;2014619;71;20508;-74
2022/08/23 07:05:40;;;;;;;7.45;4.32;;;;;;;17.56;54.74;92912.13;2014991;71;20169;-74
2022/08/23 07:08:19;;;;;;;8.32;4.60;;;;;;;18.09;53.93;92914.84;2015025;71;20330;-74
2022/08/23 07:10:45;;;;;;;6.40;4.43;;;;;;;18.33;52.87;92905.72;2008489;71;20469;-74
2022/08/23 07:13:15;;;;;;;5.47;3.95;;;;;;;18.63;53.15;92912.47;2011139;71;20523;-73
2022/08/23 07:15:41;;;;;;;6.10;4.18;;;;;;;18.61;53.08;92911.69;2011193;71;20162;-73
2022/08/23 07:18:09;;;;;;;5.63;4.18;;;;;;;18.97;52.31;92910.09;2011257;71;20211;-74
2022/08/23 07:20:35;;;;;;;7.97;3.83;;;;;;;19.36;51.13;92910.59;2011286;71;20146;-74
2022/08/23 07:23:01;;;;;;;7.65;3.80;;;;;;;19.70;50.47;92911.69;2014708;71;20134;-73
2022/08/23 07:25:28;;;;;;;7.03;4.15;;;;;;;19.83;50.33;92918.47;2012255;71;20161;-73
2022/08/23 07:28:00;;;;;;;;;;;;;;;20.19;49.79;92923.81;2011975;71;20154;-74
2022/08/23 07:30:26;;;;;;;8.07;4.55;;;;;;;20.52;49.89;92911.91;2017060;71;20131;-73
2022/08/23 07:32:52;;;;;;;7.55;4.32;;;;;;;20.78;49.95;92911.16;2014347;71;20150;-75
2022/08/23 07:35:52;;;;;;;5.45;4.05;;;;;;;21.13;49.32;92921.38;2017414;71;20168;-73
2022/08/23 07:38:18;;;;;;;7.65;3.70;;;;;;;21.31;47.66;92918.25;2017063;71;20254;-74
2022/08/23 07:40:44;;;;;;;5.65;3.80;;;;;;;21.53;47.07;92924.53;2014339;71;20666;-74
2022/08/23 07:43:10;;;;;;;5.72;4.03;;;;;;;21.41;46.50;92927.09;2016952;71;20157;-74
2022/08/23 07:45:38;;;;;;;4.93;3.53;;;;;;;21.69;45.28;92918.44;2014205;71;20250;-76
2022/08/23 07:48:05;;;;;;;4.47;3.35;;;;;;;22.37;45.39;92920.63;2014368;71;20564;-75
2022/08/23 07:50:36;;;;;;;6.65;3.70;;;;;;;22.28;45.66;92919.75;2018105;71;20178;-75
2022/08/23 07:53:02;;;;;;;4.68;3.50;;;;;;;22.67;43.73;92928.38;2014334;71;20162;-74
2022/08/23 07:55:32;;;;;;;4.70;3.67;;;;;;;23.64;43.30;92912.19;2014344;71;20182;-74
2022/08/23 07:58:16;;;;;;;5.13;3.63;;;;;;;23.13;44.58;92919.22;2018338;71;20156;-74
2022/08/23 08:01:21;;;;;;;4.60;3.55;;;;;;;24.23;40.80;92921.66;2014863;71;20237;-74
2022/08/23 08:03:51;;;;;;;4.87;3.27;;;;;;;23.52;42.08;92914.84;2017692;71;20436;-75
2022/08/23 08:06:34;;;;;;;4.00;3.30;;;;;;;26.01;37.56;92918.44;2018658;71;20209;-74
2022/08/23 08:09:00;;;;;;;3.63;3.20;;;;;;;25.54;37.61;92926.72;2014836;71;20527;-73
2022/08/23 08:11:28;;;;;;;4.00;3.20;;;;;;;25.30;39.21;92915.72;2017535;71;20165;-74
2022/08/23 08:13:54;;;;;;;4.70;3.85;;;;;;;25.18;38.00;92924.25;2014731;71;20166;-73
2022/08/23 08:16:25;;;;;;;7.32;3.40;;;;;;;25.06;38.84;92915.44;2017459;71;20188;-73
2022/08/23 08:18:53;;;;;;;4.97;3.30;;;;;;;25.23;38.28;92919.97;2017466;71;20233;-73
2022/08/23 08:21:38;;;;;;;6.68;3.70;;;;;;;27.25;34.95;92918.28;2018438;71;20160;-74
2022/08/23 08:24:24;;;;;;;4.60;3.15;;;;;;;25.84;36.50;92920.50;2018235;71;20181;-74
2022/08/23 08:26:55;;;;;;;4.13;3.10;;;;;;;25.89;36.65;92924.16;2014854;71;20162;-75
2022/08/23 08:29:21;;;;;;;5.10;3.55;;;;;;;25.69;37.46;92924.69;2012069;71;20157;-74
2022/08/23 08:31:50;;;;;;;5.38;3.38;;;;;;;25.94;36.29;92919.84;2017486;71;20161;-74
2022/08/23 08:34:17;;;;;;;5.57;3.35;;;;;;;25.38;37.08;92917.94;2014809;71;20594;-73
2022/08/23 08:36:46;;;;;;;6.32;3.40;;;;;;;26.02;34.47;92924.94;2018195;71;20248;-73
2022/08/23 08:39:23;;;;;;;5.30;3.03;;;;;;;25.62;35.57;92922.47;2014673;71;20162;-72
2022/08/23 08:41:55;;;;;;;4.32;3.30;;;;;;;26.24;35.76;92919.31;2017296;71;20193;-73
2022/08/23 08:44:39;;;;;;;4.55;3.50;;;;;;;26.23;34.54;92917.16;2017247;71;20157;-72
2022/08/23 08:47:12;;;;;;;4.88;3.58;;;;;;;26.87;34.56;92913.13;2014769;71;20154;-73
2022/08/23 08:49:46;;;;;;;4.95;3.15;;;;;;;27.21;35.53;92908.88;2014787;71;20173;-74
2022/08/23 08:52:37;;;;;;;4.88;3.25;;;;;;;26.05;35.70;92904.06;2018180;71;20150;-73
2022/08/23 08:55:10;;;;;;;5.80;3.13;;;;;;;26.74;34.85;92903.69;2017329;71;20146;-73
2022/08/23 08:57:48;;;;;;;5.07;3.63;;;;;;;27.36;36.01;92910.38;2017345;71;20259;-73
2022/08/23 09:00:19;;;;;;;5.05;3.13;;;;;;;27.49;34.67;92905.31;2018214;71;20149;-73
2022/08/23 09:02:45;;;;;;;4.13;3.37;;;;;;;27.64;32.75;92897.38;2014704;71;20165;-74
2022/08/23 09:05:13;;;;;;;3.55;3.13;;;;;;;27.70;33.87;92898.09;2014793;71;20152;-75
2022/08/23 09:08:07;;;;;;;7.28;3.30;;;;;;;27.79;33.58;92902.47;2014551;71;20231;-75
2022/08/23 09:11:17;;;;;;;4.22;3.22;;;;;;;27.32;34.12;92899.53;2014788;71;20143;-74
2022/08/23 09:14:14;;;;;;;5.10;3.55;;;;;;;26.95;34.46;92892.22;2009307;71;20154;-74
2022/08/23 09:16:56;;;;;;;4.95;3.50;;;;;;;26.95;33.24;92892.94;2018378;71;20529;-74
2022/08/23 09:19:23;;;;;;;4.30;3.53;;;;;;;27.65;34.49;92884.38;2014756;71;20641;-74
2022/08/23 09:22:00;;;;;;;4.03;3.08;;;;;;;27.94;32.75;92891.59;2017474;71;20652;-74
2022/08/23 09:24:28;;;;;;;3.13;2.85;;;;;;;28.17;33.84;92882.88;2017450;71;20254;-74
2022/08/23 09:27:09;;;;;;;4.95;3.55;;;;;;;28.71;31.74;92887.78;2014836;71;20158;-75
2022/08/23 09:29:39;;;;;;;5.80;3.40;;;;;;;27.95;33.09;92880.72;2017979;71;20196;-75
2022/08/23 09:32:23;;;;;;;9.15;3.60;;;;;;;28.10;32.60;92879.28;2014612;71;20263;-74
2022/08/23 09:34:49;;;;;;;6.70;3.30;;;;;;;29.42;32.41;92880.19;2017338;71;20609;-75
2022/08/23 09:37:21;;;;;;;6.07;3.70;;;;;;;29.92;32.04;92870.38;2014665;71;20694;-75
2022/08/23 09:40:06;;;;;;;5.68;3.30;;;;;;;29.18;31.34;92873.06;2014713;71;20496;-74
2022/08/23 09:42:38;;;;;;;5.80;3.15;;;;;;;29.58;31.47;92863.41;2011952;71;20308;-74
2022/08/23 09:45:30;;;;;;;6.15;4.07;;;;;;;28.48;31.33;92864.00;2014521;71;20142;-75
2022/08/23 09:47:56;;;;;;;8.73;3.67;;;;;;;29.09;30.68;92865.88;2014639;71;20158;-75
2022/08/23 09:50:29;;;;;;;5.22;3.40;;;;;;;29.14;31.62;92855.72;2014741;71;20257;-74
2022/08/23 09:53:06;;;;;;;4.32;3.45;;;;;;;28.50;31.85;92852.41;2014641;71;20153;-75
2022/08/23 09:55:37;;;;;;;7.07;3.47;;;;;;;29.57;31.91;92861.25;2014790;71;20626;-75
2022/08/23 09:58:14;;;;;;;5.03;3.17;;;;;;;28.94;30.78;92850.00;2014628;71;20180;-74
2022/08/23 10:00:40;;;;;;;5.00;3.30;;;;;;;29.77;31.69;92863.97;2014708;71;20138;-74
2022/08/23 10:03:28;;;;;;;6.72;3.00;;;;;;;29.63;31.02;92849.56;2011991;71;20171;-76
2022/08/23 10:06:08;;;;;;;3.10;2.80;;;;;;;30.20;29.23;92851.25;2014746;71;20161;-74
2022/08/23 10:08:37;;;;;;;6.15;3.00;;;;;;;30.12;29.52;92843.31;2014650;71;20194;-74
2022/08/23 10:11:15;;;;;;;5.63;2.78;;;;;;;30.43;28.00;92848.84;2017950;71;20383;-74
2022/08/23 10:13:42;;;;;;;3.90;2.70;;;;;;;30.57;28.14;92842.84;2014634;71;20150;-74
2022/08/23 10:16:24;;;;;;;3.22;2.65;;;;;;;31.71;27.67;92844.19;2014696;71;20146;-75
2022/08/23 10:19:14;;;;;;;5.65;2.85;;;;;;;30.91;27.71;92843.91;2017173;71;20150;-74
2022/08/23 10:22:07;;;;;;;2.70;2.50;;;;;;;32.02;27.83;92846.56;2017348;71;20603;-74
2022/08/23 10:24:52;;;;;;;4.43;2.42;;;;;;;32.54;25.92;92847.09;2014776;71;20214;-74
2022/08/23 10:30:40;;;;;;;3.60;2.33;;;;;;;32.95;26.03;92835.34;2014619;71;20213;-76
2022/08/23 10:33:19;;;;;;;3.30;2.30;;;;;;;33.76;23.64;92832.75;2017800;71;20149;-74
2022/08/23 10:36:02;;;;;;;4.20;2.13;;;;;;;33.43;23.71;92826.25;2014598;71;20564;-75
2022/08/23 10:38:43;;;;;;;2.78;2.20;;;;;;;33.43;24.59;92832.84;2014594;71;20166;-75
2022/08/23 10:41:29;;;;;;;2.17;1.88;;;;;;;34.36;24.27;92823.97;2014606;71;20165;-75
2022/08/23 10:44:01;;;;;;;4.15;2.15;;;;;;;35.45;22.93;92826.69;2011833;71;20254;-75
2022/08/23 10:46:33;;;;;;;4.38;2.10;;;;;;;35.81;22.49;92822.59;2018215;71;20496;-76
2022/08/23 10:49:02;;;;;;;2.85;2.00;;;;;;;36.03;22.63;92827.03;2014714;71;20154;-77
2022/08/23 10:51:32;;;;;;;3.42;1.90;;;;;;;36.74;21.60;92820.91;2017260;71;20252;-76
2022/08/23 10:54:08;;;;;;;4.18;1.77;;;;;;;37.70;21.31;92825.38;2014666;71;20223;-75
2022/08/23 10:56:35;;;;;;;2.83;1.90;;;;;;;37.91;20.74;92826.03;2014656;71;20166;-75
2022/08/23 10:59:09;;;;;;;2.50;1.85;;;;;;;38.81;19.98;92811.19;2014483;71;20158;-75
2022/08/23 11:01:56;;;;;;;2.42;1.40;;;;;;;40.22;17.39;92828.13;2014789;71;20166;-76
2022/08/23 11:04:36;;;;;;;2.58;1.50;;;;;;;42.44;15.84;92818.41;2014934;71;20161;-75
2022/08/23 11:07:40;;;;;;;3.40;1.60;;;;;;;44.26;14.39;92831.56;2014584;71;20157;-76
2022/08/23 11:10:29;;;;;;;1.85;1.33;;;;;;;44.62;12.54;92824.75;2014701;71;20227;-76
2022/08/23 11:13:05;;;;;;;2.45;1.35;;;;;;;43.37;12.86;92829.09;2014520;71;20257;-76
2022/08/23 11:15:54;;;;;;;1.85;1.15;;;;;;;45.05;11.60;92824.84;2014781;71;20254;-74
2022/08/23 11:18:42;;;;;;;1.55;1.05;;;;;;;46.65;11.33;92820.00;2018290;71;20141;-75
2022/08/23 11:21:32;;;;;;;2.05;1.00;;;;;;;44.11;12.15;92810.31;2016258;71;20263;-77
2022/08/23 11:24:01;;;;;;;2.92;1.17;;;;;;;46.63;9.61;92814.91;2013780;71;20166;-76
2022/08/23 11:26:30;;;;;;;1.65;1.20;;;;;;;44.78;11.36;92808.09;2013799;71;20227;-76
2022/08/23 11:29:22;;;;;;;1.70;1.10;;;;;;;47.49;11.15;92820.25;2016713;71;20142;-75
2022/08/23 11:32:03;;;;;;;2.05;1.08;;;;;;;49.28;10.05;92822.69;2014681;71;20244;-73
2022/08/23 11:34:57;;;;;;;2.35;0.90;;;;;;;45.08;10.99;92805.28;2014829;71;20580;-76
2022/08/23 11:37:29;;;;;;;1.10;0.88;;;;;;;47.76;9.38;92818.88;2018422;71;20558;-76
2022/08/23 11:40:06;;;;;;;1.60;1.02;;;;;;;47.63;10.08;92816.81;2014797;71;20538;-76
2022/08/23 11:42:51;;;;;;;1.95;1.05;;;;;;;48.03;9.57;92809.19;2016965;71;20205;-76
2022/08/23 11:45:44;;;;;;;1.73;0.90;;;;;;;48.54;9.43;92813.25;2014422;71;20233;-73
2022/08/23 11:48:39;;;;;;;1.65;0.85;;;;;;;47.33;9.48;92808.06;2014484;71;20945;-73
2022/08/23 11:51:27;;;;;;;1.60;0.80;;;;;;;45.00;8.99;92803.59;2017984;71;20177;-72
2022/08/23 11:53:54;;;;;;;1.27;0.77;;;;;;;43.44;9.12;92794.59;2018031;71;20141;-73
2022/08/23 11:56:19;;;;;;;1.58;0.75;;;;;;;48.12;8.54;92809.25;2018566;71;20138;-73
2022/08/23 11:58:51;;;;;;;2.40;0.95;;;;;;;46.25;8.98;92804.34;2014679;71;20700;-73
2022/08/23 12:01:30;;;;;;;2.00;0.80;;;;;;;48.89;8.60;92798.41;2018125;71;20138;-75
2022/08/23 12:04:09;;;;;;;1.10;0.80;;;;;;;47.32;9.55;92799.97;2018186;71;20215;-74
2022/08/23 12:06:34;;;;;;;2.80;1.00;;;;;;;49.52;8.48;92799.66;2018221;71;20214;-73
2022/08/23 12:09:11;;;;;;;1.35;0.95;;;;;;;48.14;8.74;92787.47;2018027;71;20607;-73
2022/08/23 12:11:55;;;;;;;1.70;0.80;;;;;;;48.49;8.95;92788.31;2014176;71;20150;-74